sensor_id;sensor_type;location;lat;lon;timestamp;temperature;humidity
13412;DHT22;6777;51.474;7.218;2022-07-29T00:00:11;24.50;39.00
13412;DHT22;6777;51.474;7.218;2022-07-29T00:02:38;24.40;39.00
13412;DHT22;6777;51.474;7.218;2022-07-29T00:05:07;24.50;39.10
13412;DHT22;6777;51.474;7.218;2022-07-29T00:07:35;24.70;39.20
13412;DHT22;6777;51.474;7.218;2022-07-29T00:10:04;24.40;39.10
13412;DHT22;6777;51.474;7.218;2022-07-29T00:12:31;24.40;39.10
13412;DHT22;6777;51.474;7.218;2022-07-29T00:14:58;24.30;39.10
13412;DHT22;6777;51.474;7.218;2022-07-29T00:17:26;24.30;39.10
13412;DHT22;6777;51.474;7.218;2022-07-29T00:19:53;24.20;39.80
13412;DHT22;6777;51.474;7.218;2022-07-29T00:22:20;24.30;39.10
13412;DHT22;6777;51.474;7.218;2022-07-29T00:24:48;24.30;39.10
13412;DHT22;6777;51.474;7.218;2022-07-29T00:27:17;24.30;39.90
13412;DHT22;6777;51.474;7.218;2022-07-29T00:29:44;24.30;39.20
13412;DHT22;6777;51.474;7.218;2022-07-29T00:32:11;24.10;39.10
13412;DHT22;6777;51.474;7.218;2022-07-29T00:34:39;24.30;39.20
13412;DHT22;6777;51.474;7.218;2022-07-29T00:37:32;24.20;39.20
13412;DHT22;6777;51.474;7.218;2022-07-29T00:39:59;24.20;39.10
13412;DHT22;6777;51.474;7.218;2022-07-29T00:42:28;24.20;39.20
13412;DHT22;6777;51.474;7.218;2022-07-29T00:44:55;24.20;39.30
13412;DHT22;6777;51.474;7.218;2022-07-29T00:47:22;24.20;39.30
13412;DHT22;6777;51.474;7.218;2022-07-29T00:49:49;24.10;39.30
13412;DHT22;6777;51.474;7.218;2022-07-29T00:52:16;24.10;39.40
13412;DHT22;6777;51.474;7.218;2022-07-29T00:54:43;24.10;39.40
13412;DHT22;6777;51.474;7.218;2022-07-29T00:57:12;24.10;39.40
13412;DHT22;6777;51.474;7.218;2022-07-29T00:59:40;24.10;39.40
13412;DHT22;6777;51.474;7.218;2022-07-29T01:02:07;24.10;39.40
13412;DHT22;6777;51.474;7.218;2022-07-29T01:04:34;24.10;39.40
13412;DHT22;6777;51.474;7.218;2022-07-29T01:07:02;24.00;39.40
13412;DHT22;6777;51.474;7.218;2022-07-29T01:09:30;25.20;40.10
13412;DHT22;6777;51.474;7.218;2022-07-29T01:11:59;24.00;39.50
13412;DHT22;6777;51.474;7.218;2022-07-29T01:14:26;24.00;39.60
13412;DHT22;6777;51.474;7.218;2022-07-29T01:17:00;24.00;39.60
13412;DHT22;6777;51.474;7.218;2022-07-29T01:19:43;24.90;40.10
13412;DHT22;6777;51.474;7.218;2022-07-29T01:22:26;23.90;39.70
13412;DHT22;6777;51.474;7.218;2022-07-29T01:25:10;22.80;40.00
13412;DHT22;6777;51.474;7.218;2022-07-29T01:28:01;23.90;39.80
13412;DHT22;6777;51.474;7.218;2022-07-29T01:30:38;23.90;39.80
13412;DHT22;6777;51.474;7.218;2022-07-29T01:33:09;23.90;39.80
13412;DHT22;6777;51.474;7.218;2022-07-29T01:35:59;23.80;39.80
13412;DHT22;6777;51.474;7.218;2022-07-29T01:38:29;23.80;39.80
13412;DHT22;6777;51.474;7.218;2022-07-29T01:41:02;23.80;40.00
13412;DHT22;6777;51.474;7.218;2022-07-29T01:43:36;23.80;40.10
13412;DHT22;6777;51.474;7.218;2022-07-29T01:46:13;23.80;40.10
13412;DHT22;6777;51.474;7.218;2022-07-29T01:48:45;23.70;40.20
13412;DHT22;6777;51.474;7.218;2022-07-29T01:51:17;23.70;40.20
13412;DHT22;6777;51.474;7.218;2022-07-29T01:53:55;23.70;40.20
13412;DHT22;6777;51.474;7.218;2022-07-29T01:56:28;23.70;40.30
13412;DHT22;6777;51.474;7.218;2022-07-29T01:58:58;23.70;40.20
13412;DHT22;6777;51.474;7.218;2022-07-29T02:01:28;23.70;40.40
13412;DHT22;6777;51.474;7.218;2022-07-29T02:03:57;23.70;40.30
13412;DHT22;6777;51.474;7.218;2022-07-29T02:06:25;23.70;40.30
13412;DHT22;6777;51.474;7.218;2022-07-29T02:08:53;23.70;40.30
13412;DHT22;6777;51.474;7.218;2022-07-29T02:11:23;23.60;40.30
13412;DHT22;6777;51.474;7.218;2022-07-29T02:13:52;23.60;40.40
13412;DHT22;6777;51.474;7.218;2022-07-29T02:16:21;23.70;40.60
13412;DHT22;6777;51.474;7.218;2022-07-29T02:18:52;24.50;41.00
13412;DHT22;6777;51.474;7.218;2022-07-29T02:21:24;23.20;40.40
13412;DHT22;6777;51.474;7.218;2022-07-29T02:23:52;23.60;40.70
13412;DHT22;6777;51.474;7.218;2022-07-29T02:26:23;23.50;40.70
13412;DHT22;6777;51.474;7.218;2022-07-29T02:28:55;23.50;40.70
13412;DHT22;6777;51.474;7.218;2022-07-29T02:31:26;23.50;40.80
13412;DHT22;6777;51.474;7.218;2022-07-29T02:33:57;23.50;40.80
13412;DHT22;6777;51.474;7.218;2022-07-29T02:36:26;23.60;41.30
13412;DHT22;6777;51.474;7.218;2022-07-29T02:38:55;23.50;41.00
13412;DHT22;6777;51.474;7.218;2022-07-29T02:41:29;23.50;40.90
13412;DHT22;6777;51.474;7.218;2022-07-29T02:44:03;23.50;40.90
13412;DHT22;6777;51.474;7.218;2022-07-29T02:46:35;23.50;41.00
13412;DHT22;6777;51.474;7.218;2022-07-29T02:49:10;23.30;40.80
13412;DHT22;6777;51.474;7.218;2022-07-29T02:51:43;23.50;41.10
13412;DHT22;6777;51.474;7.218;2022-07-29T02:54:21;23.50;41.10
13412;DHT22;6777;51.474;7.218;2022-07-29T02:57:00;23.50;41.40
13412;DHT22;6777;51.474;7.218;2022-07-29T02:59:30;23.50;41.10
13412;DHT22;6777;51.474;7.218;2022-07-29T03:02:01;23.40;41.20
13412;DHT22;6777;51.474;7.218;2022-07-29T03:04:30;23.40;41.20
13412;DHT22;6777;51.474;7.218;2022-07-29T03:06:59;23.40;41.30
13412;DHT22;6777;51.474;7.218;2022-07-29T03:09:27;23.40;41.30
13412;DHT22;6777;51.474;7.218;2022-07-29T03:11:56;23.40;41.20
13412;DHT22;6777;51.474;7.218;2022-07-29T03:14:24;23.40;41.40
13412;DHT22;6777;51.474;7.218;2022-07-29T03:16:52;23.40;41.50
13412;DHT22;6777;51.474;7.218;2022-07-29T03:19:20;23.40;41.40
13412;DHT22;6777;51.474;7.218;2022-07-29T03:21:49;23.30;41.40
13412;DHT22;6777;51.474;7.218;2022-07-29T03:24:29;23.30;41.50
13412;DHT22;6777;51.474;7.218;2022-07-29T03:26:58;23.40;41.80
13412;DHT22;6777;51.474;7.218;2022-07-29T03:29:26;23.30;41.50
13412;DHT22;6777;51.474;7.218;2022-07-29T03:31:54;23.30;41.60
13412;DHT22;6777;51.474;7.218;2022-07-29T03:34:21;23.30;41.60
13412;DHT22;6777;51.474;7.218;2022-07-29T03:36:50;23.30;41.60
13412;DHT22;6777;51.474;7.218;2022-07-29T03:39:20;23.30;41.70
13412;DHT22;6777;51.474;7.218;2022-07-29T03:41:53;23.30;41.70
13412;DHT22;6777;51.474;7.218;2022-07-29T03:44:24;23.30;41.80
13412;DHT22;6777;51.474;7.218;2022-07-29T03:46:54;23.30;41.80
13412;DHT22;6777;51.474;7.218;2022-07-29T03:49:23;23.30;41.80
13412;DHT22;6777;51.474;7.218;2022-07-29T03:51:52;23.30;41.90
13412;DHT22;6777;51.474;7.218;2022-07-29T03:54:19;23.30;42.00
13412;DHT22;6777;51.474;7.218;2022-07-29T03:56:48;23.30;41.90
13412;DHT22;6777;51.474;7.218;2022-07-29T03:59:18;23.20;41.90
13412;DHT22;6777;51.474;7.218;2022-07-29T04:01:47;23.30;42.10
13412;DHT22;6777;51.474;7.218;2022-07-29T04:04:15;23.20;42.10
13412;DHT22;6777;51.474;7.218;2022-07-29T04:06:44;23.20;42.00
13412;DHT22;6777;51.474;7.218;2022-07-29T04:09:13;23.20;42.10
13412;DHT22;6777;51.474;7.218;2022-07-29T04:11:41;23.10;42.20
13412;DHT22;6777;51.474;7.218;2022-07-29T04:14:09;23.10;42.20
13412;DHT22;6777;51.474;7.218;2022-07-29T04:16:36;23.10;42.20
13412;DHT22;6777;51.474;7.218;2022-07-29T04:19:03;23.10;42.30
13412;DHT22;6777;51.474;7.218;2022-07-29T04:21:30;23.10;43.00
13412;DHT22;6777;51.474;7.218;2022-07-29T04:23:57;23.10;42.30
13412;DHT22;6777;51.474;7.218;2022-07-29T04:26:25;23.10;42.40
13412;DHT22;6777;51.474;7.218;2022-07-29T04:28:52;23.10;42.50
13412;DHT22;6777;51.474;7.218;2022-07-29T04:31:19;23.10;42.40
13412;DHT22;6777;51.474;7.218;2022-07-29T04:33:46;23.00;42.40
13412;DHT22;6777;51.474;7.218;2022-07-29T04:36:13;23.00;42.50
13412;DHT22;6777;51.474;7.218;2022-07-29T04:38:40;23.00;42.50
13412;DHT22;6777;51.474;7.218;2022-07-29T04:41:07;23.00;42.60
13412;DHT22;6777;51.474;7.218;2022-07-29T04:43:36;23.00;42.60
13412;DHT22;6777;51.474;7.218;2022-07-29T04:46:05;23.00;42.70
13412;DHT22;6777;51.474;7.218;2022-07-29T04:48:33;23.00;42.70
13412;DHT22;6777;51.474;7.218;2022-07-29T04:51:00;23.00;42.90
13412;DHT22;6777;51.474;7.218;2022-07-29T04:53:28;23.00;42.80
13412;DHT22;6777;51.474;7.218;2022-07-29T04:55:55;23.00;42.90
13412;DHT22;6777;51.474;7.218;2022-07-29T04:58:22;23.00;43.00
13412;DHT22;6777;51.474;7.218;2022-07-29T05:00:51;22.90;43.00
13412;DHT22;6777;51.474;7.218;2022-07-29T05:03:18;23.00;43.20
13412;DHT22;6777;51.474;7.218;2022-07-29T05:05:45;23.00;43.20
13412;DHT22;6777;51.474;7.218;2022-07-29T05:08:12;22.90;43.20
13412;DHT22;6777;51.474;7.218;2022-07-29T05:10:39;22.90;43.40
13412;DHT22;6777;51.474;7.218;2022-07-29T05:13:07;22.90;43.40
13412;DHT22;6777;51.474;7.218;2022-07-29T05:15:35;22.90;43.50
13412;DHT22;6777;51.474;7.218;2022-07-29T05:18:04;22.90;43.50
13412;DHT22;6777;51.474;7.218;2022-07-29T05:20:32;22.90;43.70
13412;DHT22;6777;51.474;7.218;2022-07-29T05:23:00;22.90;43.70
13412;DHT22;6777;51.474;7.218;2022-07-29T05:25:29;22.90;43.90
13412;DHT22;6777;51.474;7.218;2022-07-29T05:27:57;22.90;44.00
13412;DHT22;6777;51.474;7.218;2022-07-29T05:30:24;22.80;44.00
13412;DHT22;6777;51.474;7.218;2022-07-29T05:32:51;22.10;43.80
13412;DHT22;6777;51.474;7.218;2022-07-29T05:35:20;22.80;44.20
13412;DHT22;6777;51.474;7.218;2022-07-29T05:37:47;22.80;44.40
13412;DHT22;6777;51.474;7.218;2022-07-29T05:40:15;22.80;44.80
13412;DHT22;6777;51.474;7.218;2022-07-29T05:42:42;22.80;44.60
13412;DHT22;6777;51.474;7.218;2022-07-29T05:45:10;22.80;44.70
13412;DHT22;6777;51.474;7.218;2022-07-29T05:47:37;22.80;44.60
13412;DHT22;6777;51.474;7.218;2022-07-29T05:50:05;22.80;44.70
13412;DHT22;6777;51.474;7.218;2022-07-29T05:52:34;22.80;45.00
13412;DHT22;6777;51.474;7.218;2022-07-29T05:55:02;22.80;45.60
13412;DHT22;6777;51.474;7.218;2022-07-29T05:57:31;22.70;44.80
13412;DHT22;6777;51.474;7.218;2022-07-29T05:59:58;22.70;44.90
13412;DHT22;6777;51.474;7.218;2022-07-29T06:02:25;21.90;44.60
13412;DHT22;6777;51.474;7.218;2022-07-29T06:04:52;22.70;45.00
13412;DHT22;6777;51.474;7.218;2022-07-29T06:07:19;22.70;45.00
13412;DHT22;6777;51.474;7.218;2022-07-29T06:09:48;22.70;45.00
13412;DHT22;6777;51.474;7.218;2022-07-29T06:12:15;22.70;45.10
13412;DHT22;6777;51.474;7.218;2022-07-29T06:14:42;22.70;45.10
13412;DHT22;6777;51.474;7.218;2022-07-29T06:17:09;22.70;45.20
13412;DHT22;6777;51.474;7.218;2022-07-29T06:19:37;22.70;45.20
13412;DHT22;6777;51.474;7.218;2022-07-29T06:22:04;22.70;45.20
13412;DHT22;6777;51.474;7.218;2022-07-29T06:24:31;22.70;45.20
13412;DHT22;6777;51.474;7.218;2022-07-29T06:27:00;22.80;45.20
13412;DHT22;6777;51.474;7.218;2022-07-29T06:29:27;22.90;45.50
13412;DHT22;6777;51.474;7.218;2022-07-29T06:31:54;22.80;45.30
13412;DHT22;6777;51.474;7.218;2022-07-29T06:34:21;22.80;45.40
13412;DHT22;6777;51.474;7.218;2022-07-29T06:36:48;22.90;45.40
13412;DHT22;6777;51.474;7.218;2022-07-29T06:39:16;22.90;45.40
13412;DHT22;6777;51.474;7.218;2022-07-29T06:41:46;22.90;45.40
13412;DHT22;6777;51.474;7.218;2022-07-29T06:44:16;22.90;45.60
13412;DHT22;6777;51.474;7.218;2022-07-29T06:46:43;22.90;45.60
13412;DHT22;6777;51.474;7.218;2022-07-29T06:49:12;23.00;45.70
13412;DHT22;6777;51.474;7.218;2022-07-29T06:51:39;23.00;45.70
13412;DHT22;6777;51.474;7.218;2022-07-29T06:54:06;23.00;45.80
13412;DHT22;6777;51.474;7.218;2022-07-29T06:56:35;23.00;45.80
13412;DHT22;6777;51.474;7.218;2022-07-29T06:59:03;23.00;46.10
13412;DHT22;6777;51.474;7.218;2022-07-29T07:01:32;23.10;46.00
13412;DHT22;6777;51.474;7.218;2022-07-29T07:03:59;23.10;46.10
13412;DHT22;6777;51.474;7.218;2022-07-29T07:06:26;23.10;46.00
13412;DHT22;6777;51.474;7.218;2022-07-29T07:08:53;23.10;46.10
13412;DHT22;6777;51.474;7.218;2022-07-29T07:11:20;23.80;46.50
13412;DHT22;6777;51.474;7.218;2022-07-29T07:13:47;23.20;46.30
13412;DHT22;6777;51.474;7.218;2022-07-29T07:16:14;23.30;46.40
13412;DHT22;6777;51.474;7.218;2022-07-29T07:18:43;23.20;46.40
13412;DHT22;6777;51.474;7.218;2022-07-29T07:21:10;23.40;46.70
13412;DHT22;6777;51.474;7.218;2022-07-29T07:23:38;23.30;46.60
13412;DHT22;6777;51.474;7.218;2022-07-29T07:26:05;23.30;46.70
13412;DHT22;6777;51.474;7.218;2022-07-29T07:28:32;23.40;46.80
13412;DHT22;6777;51.474;7.218;2022-07-29T07:30:59;23.40;46.70
13412;DHT22;6777;51.474;7.218;2022-07-29T07:33:26;23.50;46.80
13412;DHT22;6777;51.474;7.218;2022-07-29T07:35:55;23.50;46.70
13412;DHT22;6777;51.474;7.218;2022-07-29T07:38:22;23.60;46.80
13412;DHT22;6777;51.474;7.218;2022-07-29T07:40:49;23.60;46.60
13412;DHT22;6777;51.474;7.218;2022-07-29T07:43:16;23.60;46.50
13412;DHT22;6777;51.474;7.218;2022-07-29T07:45:43;23.70;46.40
13412;DHT22;6777;51.474;7.218;2022-07-29T07:48:10;23.70;46.30
13412;DHT22;6777;51.474;7.218;2022-07-29T07:50:37;23.70;46.10
13412;DHT22;6777;51.474;7.218;2022-07-29T07:53:06;23.70;46.00
13412;DHT22;6777;51.474;7.218;2022-07-29T07:55:33;23.80;46.10
13412;DHT22;6777;51.474;7.218;2022-07-29T07:58:00;23.80;46.00
13412;DHT22;6777;51.474;7.218;2022-07-29T08:00:27;23.80;45.90
13412;DHT22;6777;51.474;7.218;2022-07-29T08:02:54;23.80;45.90
13412;DHT22;6777;51.474;7.218;2022-07-29T08:05:21;23.80;45.90
13412;DHT22;6777;51.474;7.218;2022-07-29T08:07:48;23.80;45.90
13412;DHT22;6777;51.474;7.218;2022-07-29T08:10:18;23.90;45.90
13412;DHT22;6777;51.474;7.218;2022-07-29T08:13:02;23.90;45.90
13412;DHT22;6777;51.474;7.218;2022-07-29T08:15:29;23.90;45.80
13412;DHT22;6777;51.474;7.218;2022-07-29T08:17:56;24.00;45.90
13412;DHT22;6777;51.474;7.218;2022-07-29T08:20:23;24.00;45.90
13412;DHT22;6777;51.474;7.218;2022-07-29T08:22:51;24.00;46.00
13412;DHT22;6777;51.474;7.218;2022-07-29T08:25:20;24.00;46.00
13412;DHT22;6777;51.474;7.218;2022-07-29T08:27:48;24.00;46.10
13412;DHT22;6777;51.474;7.218;2022-07-29T08:30:15;24.10;46.00
13412;DHT22;6777;51.474;7.218;2022-07-29T08:32:43;24.10;46.00
13412;DHT22;6777;51.474;7.218;2022-07-29T08:35:10;24.10;46.00
13412;DHT22;6777;51.474;7.218;2022-07-29T08:37:37;24.20;46.00
13412;DHT22;6777;51.474;7.218;2022-07-29T08:40:05;24.20;45.90
13412;DHT22;6777;51.474;7.218;2022-07-29T08:42:34;22.70;45.20
13412;DHT22;6777;51.474;7.218;2022-07-29T08:45:02;24.30;45.90
13412;DHT22;6777;51.474;7.218;2022-07-29T08:47:31;24.30;45.90
13412;DHT22;6777;51.474;7.218;2022-07-29T08:49:59;24.30;46.00
13412;DHT22;6777;51.474;7.218;2022-07-29T08:52:26;22.50;45.00
13412;DHT22;6777;51.474;7.218;2022-07-29T08:54:55;24.40;46.10
13412;DHT22;6777;51.474;7.218;2022-07-29T08:57:23;24.40;46.00
13412;DHT22;6777;51.474;7.218;2022-07-29T08:59:52;24.40;46.00
13412;DHT22;6777;51.474;7.218;2022-07-29T09:02:22;24.50;46.10
13412;DHT22;6777;51.474;7.218;2022-07-29T09:04:49;24.40;46.00
13412;DHT22;6777;51.474;7.218;2022-07-29T09:07:18;24.40;46.60
13412;DHT22;6777;51.474;7.218;2022-07-29T09:09:45;24.40;46.00
13412;DHT22;6777;51.474;7.218;2022-07-29T09:12:13;24.50;46.10
13412;DHT22;6777;51.474;7.218;2022-07-29T09:14:41;24.40;46.10
13412;DHT22;6777;51.474;7.218;2022-07-29T09:17:09;24.40;46.30
13412;DHT22;6777;51.474;7.218;2022-07-29T09:19:37;24.40;46.50
13412;DHT22;6777;51.474;7.218;2022-07-29T09:22:06;24.40;46.50
13412;DHT22;6777;51.474;7.218;2022-07-29T09:24:43;24.40;46.60
13412;DHT22;6777;51.474;7.218;2022-07-29T09:27:20;24.40;46.70
13412;DHT22;6777;51.474;7.218;2022-07-29T09:29:56;24.40;46.80
13412;DHT22;6777;51.474;7.218;2022-07-29T09:32:26;24.40;46.90
13412;DHT22;6777;51.474;7.218;2022-07-29T09:35:15;24.40;46.60
13412;DHT22;6777;51.474;7.218;2022-07-29T09:37:44;24.30;47.00
13412;DHT22;6777;51.474;7.218;2022-07-29T09:40:13;24.40;46.70
13412;DHT22;6777;51.474;7.218;2022-07-29T09:42:41;24.30;46.70
13412;DHT22;6777;51.474;7.218;2022-07-29T09:45:09;24.30;46.80
13412;DHT22;6777;51.474;7.218;2022-07-29T09:47:43;24.30;46.80
13412;DHT22;6777;51.474;7.218;2022-07-29T09:50:12;24.30;47.10
13412;DHT22;6777;51.474;7.218;2022-07-29T09:52:47;24.30;46.90
13412;DHT22;6777;51.474;7.218;2022-07-29T09:55:16;24.30;47.10
13412;DHT22;6777;51.474;7.218;2022-07-29T09:57:44;24.20;46.90
13412;DHT22;6777;51.474;7.218;2022-07-29T10:00:13;24.20;47.00
13412;DHT22;6777;51.474;7.218;2022-07-29T10:02:46;24.10;47.10
13412;DHT22;6777;51.474;7.218;2022-07-29T10:05:19;24.10;47.30
13412;DHT22;6777;51.474;7.218;2022-07-29T10:07:49;24.10;47.40
13412;DHT22;6777;51.474;7.218;2022-07-29T10:10:22;24.10;47.30
13412;DHT22;6777;51.474;7.218;2022-07-29T10:12:52;24.10;47.40
13412;DHT22;6777;51.474;7.218;2022-07-29T10:15:25;24.10;47.50
13412;DHT22;6777;51.474;7.218;2022-07-29T10:17:56;24.10;47.60
13412;DHT22;6777;51.474;7.218;2022-07-29T10:20:26;24.10;47.50
13412;DHT22;6777;51.474;7.218;2022-07-29T10:22:54;24.10;47.40
13412;DHT22;6777;51.474;7.218;2022-07-29T10:25:23;24.10;47.40
13412;DHT22;6777;51.474;7.218;2022-07-29T10:27:52;24.10;47.40
13412;DHT22;6777;51.474;7.218;2022-07-29T10:30:24;24.10;47.50
13412;DHT22;6777;51.474;7.218;2022-07-29T10:33:25;24.10;47.60
13412;DHT22;6777;51.474;7.218;2022-07-29T10:36:11;24.20;47.80
13412;DHT22;6777;51.474;7.218;2022-07-29T10:39:02;24.10;47.60
13412;DHT22;6777;51.474;7.218;2022-07-29T10:41:55;24.10;47.60
13412;DHT22;6777;51.474;7.218;2022-07-29T10:44:26;24.10;47.70
13412;DHT22;6777;51.474;7.218;2022-07-29T10:46:54;24.00;47.40
13412;DHT22;6777;51.474;7.218;2022-07-29T10:49:24;24.10;47.50
13412;DHT22;6777;51.474;7.218;2022-07-29T10:52:00;24.10;47.70
13412;DHT22;6777;51.474;7.218;2022-07-29T10:54:39;24.10;47.90
13412;DHT22;6777;51.474;7.218;2022-07-29T10:57:19;24.00;48.00
13412;DHT22;6777;51.474;7.218;2022-07-29T10:59:49;24.10;48.30
13412;DHT22;6777;51.474;7.218;2022-07-29T11:02:43;24.00;47.90
13412;DHT22;6777;51.474;7.218;2022-07-29T11:05:14;24.00;48.50
13412;DHT22;6777;51.474;7.218;2022-07-29T11:08:16;24.00;48.20
13412;DHT22;6777;51.474;7.218;2022-07-29T11:10:47;24.00;48.70
13412;DHT22;6777;51.474;7.218;2022-07-29T11:13:45;24.00;48.10
13412;DHT22;6777;51.474;7.218;2022-07-29T11:16:14;24.00;48.80
13412;DHT22;6777;51.474;7.218;2022-07-29T11:19:19;24.00;48.30
13412;DHT22;6777;51.474;7.218;2022-07-29T11:21:49;24.00;49.10
13412;DHT22;6777;51.474;7.218;2022-07-29T11:24:21;24.10;48.40
13412;DHT22;6777;51.474;7.218;2022-07-29T11:27:22;24.00;48.40
13412;DHT22;6777;51.474;7.218;2022-07-29T11:29:51;24.00;48.90
13412;DHT22;6777;51.474;7.218;2022-07-29T11:32:20;24.00;48.50
13412;DHT22;6777;51.474;7.218;2022-07-29T11:35:09;24.00;48.60
13412;DHT22;6777;51.474;7.218;2022-07-29T11:37:39;24.00;48.60
13412;DHT22;6777;51.474;7.218;2022-07-29T11:40:14;24.00;48.80
13412;DHT22;6777;51.474;7.218;2022-07-29T11:42:47;24.00;49.20
13412;DHT22;6777;51.474;7.218;2022-07-29T11:45:17;24.00;49.00
13412;DHT22;6777;51.474;7.218;2022-07-29T11:47:49;24.00;49.20
13412;DHT22;6777;51.474;7.218;2022-07-29T11:50:27;24.10;49.30
13412;DHT22;6777;51.474;7.218;2022-07-29T11:53:00;24.10;49.40
13412;DHT22;6777;51.474;7.218;2022-07-29T11:55:28;24.20;48.90
13412;DHT22;6777;51.474;7.218;2022-07-29T11:57:59;24.20;48.70
13412;DHT22;6777;51.474;7.218;2022-07-29T12:00:29;24.20;48.60
13412;DHT22;6777;51.474;7.218;2022-07-29T12:03:00;24.30;48.60
13412;DHT22;6777;51.474;7.218;2022-07-29T12:05:35;24.30;48.60
13412;DHT22;6777;51.474;7.218;2022-07-29T12:08:13;24.30;48.70
13412;DHT22;6777;51.474;7.218;2022-07-29T12:10:42;24.30;48.30
13412;DHT22;6777;51.474;7.218;2022-07-29T12:13:10;24.40;48.40
13412;DHT22;6777;51.474;7.218;2022-07-29T12:15:37;24.50;48.40
13412;DHT22;6777;51.474;7.218;2022-07-29T12:18:13;24.50;48.30
13412;DHT22;6777;51.474;7.218;2022-07-29T12:20:41;24.60;48.20
13412;DHT22;6777;51.474;7.218;2022-07-29T12:23:08;24.60;48.20
13412;DHT22;6777;51.474;7.218;2022-07-29T12:25:40;24.60;48.00
13412;DHT22;6777;51.474;7.218;2022-07-29T12:28:09;24.70;48.00
13412;DHT22;6777;51.474;7.218;2022-07-29T12:30:40;24.70;47.90
13412;DHT22;6777;51.474;7.218;2022-07-29T12:33:13;24.80;47.60
13412;DHT22;6777;51.474;7.218;2022-07-29T12:35:48;24.90;47.30
13412;DHT22;6777;51.474;7.218;2022-07-29T12:38:17;24.90;47.10
13412;DHT22;6777;51.474;7.218;2022-07-29T12:40:47;25.00;47.00
13412;DHT22;6777;51.474;7.218;2022-07-29T12:43:17;25.00;46.90
13412;DHT22;6777;51.474;7.218;2022-07-29T12:45:47;25.10;47.00
13412;DHT22;6777;51.474;7.218;2022-07-29T12:48:16;25.10;47.10
13412;DHT22;6777;51.474;7.218;2022-07-29T12:50:55;25.20;47.30
13412;DHT22;6777;51.474;7.218;2022-07-29T12:53:23;25.20;47.10
13412;DHT22;6777;51.474;7.218;2022-07-29T12:55:55;25.30;47.20
13412;DHT22;6777;51.474;7.218;2022-07-29T12:58:30;25.40;46.80
13412;DHT22;6777;51.474;7.218;2022-07-29T13:01:05;25.40;46.60
13412;DHT22;6777;51.474;7.218;2022-07-29T13:03:50;25.50;46.50
13412;DHT22;6777;51.474;7.218;2022-07-29T13:06:33;25.50;46.30
13412;DHT22;6777;51.474;7.218;2022-07-29T13:09:10;25.50;46.10
13412;DHT22;6777;51.474;7.218;2022-07-29T13:11:42;25.60;46.20
13412;DHT22;6777;51.474;7.218;2022-07-29T13:14:13;25.60;46.40
13412;DHT22;6777;51.474;7.218;2022-07-29T13:17:01;27.00;47.30
13412;DHT22;6777;51.474;7.218;2022-07-29T13:19:35;25.80;46.40
13412;DHT22;6777;51.474;7.218;2022-07-29T13:22:04;25.70;46.20
13412;DHT22;6777;51.474;7.218;2022-07-29T13:24:31;25.60;46.10
13412;DHT22;6777;51.474;7.218;2022-07-29T13:27:00;25.80;46.20
13412;DHT22;6777;51.474;7.218;2022-07-29T13:29:27;25.80;46.10
13412;DHT22;6777;51.474;7.218;2022-07-29T13:31:54;25.90;46.30
13412;DHT22;6777;51.474;7.218;2022-07-29T13:34:21;25.90;46.40
13412;DHT22;6777;51.474;7.218;2022-07-29T13:36:49;26.00;46.60
13412;DHT22;6777;51.474;7.218;2022-07-29T13:39:17;26.00;46.60
13412;DHT22;6777;51.474;7.218;2022-07-29T13:41:44;26.10;47.20
13412;DHT22;6777;51.474;7.218;2022-07-29T13:44:12;26.20;46.50
13412;DHT22;6777;51.474;7.218;2022-07-29T13:46:39;26.30;46.50
13412;DHT22;6777;51.474;7.218;2022-07-29T13:49:06;26.30;46.10
13412;DHT22;6777;51.474;7.218;2022-07-29T13:51:33;26.30;45.90
13412;DHT22;6777;51.474;7.218;2022-07-29T13:54:00;26.40;45.90
13412;DHT22;6777;51.474;7.218;2022-07-29T13:56:28;26.40;45.70
13412;DHT22;6777;51.474;7.218;2022-07-29T13:58:55;26.50;45.60
13412;DHT22;6777;51.474;7.218;2022-07-29T14:01:24;26.50;46.20
13412;DHT22;6777;51.474;7.218;2022-07-29T14:03:51;26.50;45.40
13412;DHT22;6777;51.474;7.218;2022-07-29T14:06:18;26.50;45.40
13412;DHT22;6777;51.474;7.218;2022-07-29T14:08:45;26.60;45.50
13412;DHT22;6777;51.474;7.218;2022-07-29T14:11:12;26.60;45.40
13412;DHT22;6777;51.474;7.218;2022-07-29T14:13:39;26.60;45.40
13412;DHT22;6777;51.474;7.218;2022-07-29T14:16:06;26.60;45.40
13412;DHT22;6777;51.474;7.218;2022-07-29T14:18:35;26.60;45.40
13412;DHT22;6777;51.474;7.218;2022-07-29T14:21:02;26.70;45.30
13412;DHT22;6777;51.474;7.218;2022-07-29T14:23:29;26.70;45.00
13412;DHT22;6777;51.474;7.218;2022-07-29T14:25:56;26.80;45.10
13412;DHT22;6777;51.474;7.218;2022-07-29T14:28:23;26.80;45.00
13412;DHT22;6777;51.474;7.218;2022-07-29T14:30:51;26.70;44.70
13412;DHT22;6777;51.474;7.218;2022-07-29T14:33:18;26.80;44.70
13412;DHT22;6777;51.474;7.218;2022-07-29T14:35:46;26.80;44.80
13412;DHT22;6777;51.474;7.218;2022-07-29T14:38:14;26.80;44.80
13412;DHT22;6777;51.474;7.218;2022-07-29T14:40:41;26.90;44.70
13412;DHT22;6777;51.474;7.218;2022-07-29T14:43:08;26.80;44.70
13412;DHT22;6777;51.474;7.218;2022-07-29T14:45:35;26.90;44.50
13412;DHT22;6777;51.474;7.218;2022-07-29T14:48:02;26.90;44.40
13412;DHT22;6777;51.474;7.218;2022-07-29T14:50:29;27.00;44.50
13412;DHT22;6777;51.474;7.218;2022-07-29T14:52:58;27.00;44.50
13412;DHT22;6777;51.474;7.218;2022-07-29T14:55:25;27.00;44.40
13412;DHT22;6777;51.474;7.218;2022-07-29T14:57:52;27.00;44.20
13412;DHT22;6777;51.474;7.218;2022-07-29T15:00:21;27.00;44.20
13412;DHT22;6777;51.474;7.218;2022-07-29T15:02:48;27.00;44.30
13412;DHT22;6777;51.474;7.218;2022-07-29T15:05:15;27.00;44.20
13412;DHT22;6777;51.474;7.218;2022-07-29T15:07:42;25.40;43.20
13412;DHT22;6777;51.474;7.218;2022-07-29T15:10:11;27.10;44.30
13412;DHT22;6777;51.474;7.218;2022-07-29T15:12:38;27.20;44.10
13412;DHT22;6777;51.474;7.218;2022-07-29T15:15:06;27.10;44.00
13412;DHT22;6777;51.474;7.218;2022-07-29T15:17:34;27.10;43.90
13412;DHT22;6777;51.474;7.218;2022-07-29T15:20:02;27.20;44.00
13412;DHT22;6777;51.474;7.218;2022-07-29T15:22:30;27.20;43.80
13412;DHT22;6777;51.474;7.218;2022-07-29T15:24:57;27.20;43.60
13412;DHT22;6777;51.474;7.218;2022-07-29T15:27:25;27.20;43.40
13412;DHT22;6777;51.474;7.218;2022-07-29T15:29:52;27.20;43.40
13412;DHT22;6777;51.474;7.218;2022-07-29T15:32:19;27.20;43.30
13412;DHT22;6777;51.474;7.218;2022-07-29T15:34:46;27.20;43.40
13412;DHT22;6777;51.474;7.218;2022-07-29T15:37:13;27.20;43.30
13412;DHT22;6777;51.474;7.218;2022-07-29T15:39:40;27.20;43.20
13412;DHT22;6777;51.474;7.218;2022-07-29T15:42:07;27.20;43.30
13412;DHT22;6777;51.474;7.218;2022-07-29T15:44:36;27.30;43.50
13412;DHT22;6777;51.474;7.218;2022-07-29T15:47:03;27.30;43.70
13412;DHT22;6777;51.474;7.218;2022-07-29T15:49:32;27.30;43.90
13412;DHT22;6777;51.474;7.218;2022-07-29T15:52:02;27.30;44.10
13412;DHT22;6777;51.474;7.218;2022-07-29T15:54:32;27.40;44.20
13412;DHT22;6777;51.474;7.218;2022-07-29T15:57:00;27.40;44.20
13412;DHT22;6777;51.474;7.218;2022-07-29T15:59:27;27.50;44.30
13412;DHT22;6777;51.474;7.218;2022-07-29T16:01:56;27.40;44.30